Time;durP1;ratioP1;P1;durP2;ratioP2;P2;SDS_P1;SDS_P2;PMS_P1;PMS_P2;Temp;Humidity;BMP_temperature;BMP_pressure;BME280_temperature;BME280_humidity;BME280_pressure;Samples;Min_cycle;Max_cycle;Signal;HPM_P1;HPM_P2
2023/07/07 00:01:18;;;;;;;5.20;2.20;;;14.40;99.90;;;;;;4219857;28;20522;-88
2023/07/07 00:03:20;;;;;;;4.10;1.80;;;14.40;99.90;;;;;;4213722;28;20048;-87
2023/07/07 00:05:23;;;;;;;4.95;2.17;;;14.30;99.90;;;;;;4218611;28;20439;-85
2023/07/07 00:07:24;;;;;;;7.00;2.65;;;14.30;99.90;;;;;;4202162;28;20119;-87
2023/07/07 00:09:25;;;;;;;6.18;2.80;;;14.30;99.90;;;;;;4186641;28;20056;-87
2023/07/07 00:11:28;;;;;;;5.18;2.47;;;13.90;99.90;;;;;;4207164;28;20052;-87
2023/07/07 00:13:36;;;;;;;5.13;2.22;;;14.30;99.90;;;;;;4194788;28;20049;-88
2023/07/07 00:15:43;;;;;;;4.15;2.30;;;14.30;99.90;;;;;;4205533;28;20086;-86
2023/07/07 00:17:47;;;;;;;5.55;2.00;;;14.20;99.90;;;;;;4214317;28;20592;-87
2023/07/07 00:19:47;;;;;;;4.13;2.40;;;14.20;99.90;;;;;;4219983;28;20111;-87
2023/07/07 00:21:58;;;;;;;4.07;2.25;;;14.20;99.90;;;;;;4186596;28;20079;-86
2023/07/07 00:23:58;;;;;;;18.60;3.15;;;14.10;99.90;;;;;;4202922;28;20036;-85
2023/07/07 00:26:08;;;;;;;5.85;2.60;;;14.20;99.90;;;;;;4202445;28;20064;-86
2023/07/07 00:28:09;;;;;;;7.38;3.42;;;14.30;99.90;;;;;;4213955;28;20565;-87
2023/07/07 00:30:10;;;;;;;4.53;2.20;;;14.10;99.90;;;;;;4204392;28;20115;-87
2023/07/07 00:32:11;;;;;;;6.57;2.40;;;14.10;99.90;;;;;;4205312;28;20454;-87
2023/07/07 00:34:13;;;;;;;5.22;2.85;;;14.10;99.90;;;;;;4219946;28;20040;-88
2023/07/07 00:36:15;;;;;;;3.47;2.50;;;14.10;99.90;;;;;;4199849;28;20089;-88
2023/07/07 00:38:16;;;;;;;3.22;2.40;;;14.10;99.90;;;;;;4199001;28;20151;-87
2023/07/07 00:40:19;;;;;;;3.50;2.20;;;14.10;99.90;;;;;;4219451;27;20426;-88
2023/07/07 00:42:20;;;;;;;7.10;2.70;;;14.00;99.90;;;;;;4202356;28;20043;-87
2023/07/07 00:44:29;;;;;;;6.10;2.22;;;14.00;99.90;;;;;;4201985;28;20488;-87
2023/07/07 00:46:32;;;;;;;4.22;2.20;;;14.00;99.90;;;;;;4200359;28;20121;-87
2023/07/07 00:48:40;;;;;;;5.95;2.35;;;14.00;99.90;;;;;;4196547;28;20114;-87
2023/07/07 00:50:58;;;;;;;4.13;2.22;;;14.00;99.90;;;;;;4209608;28;20484;-87
2023/07/07 00:52:59;;;;;;;4.47;2.20;;;13.90;99.90;;;;;;4207722;28;20052;-87
2023/07/07 00:55:00;;;;;;;6.10;2.53;;;13.90;99.90;;;;;;4202086;28;20162;-87
2023/07/07 00:57:02;;;;;;;5.20;2.55;;;13.90;99.90;;;;;;4200512;28;20045;-87
2023/07/07 00:59:08;;;;;;;11.20;2.55;;;13.90;99.90;;;;;;4202566;28;20477;-87
2023/07/07 01:01:17;;;;;;;5.25;2.75;;;13.90;99.90;;;;;;4218112;27;20055;-87
2023/07/07 01:03:24;;;;;;;2.97;1.95;;;13.90;99.90;;;;;;4196367;28;20479;-87
2023/07/07 01:05:30;;;;;;;6.07;2.30;;;13.80;99.90;;;;;;4202344;28;20366;-87
2023/07/07 01:07:38;;;;;;;5.65;2.38;;;13.80;99.90;;;;;;4217317;28;20512;-87
2023/07/07 01:09:38;;;;;;;4.05;2.55;;;13.80;99.90;;;;;;4202880;28;20040;-87
2023/07/07 01:11:41;;;;;;;7.95;2.67;;;13.80;99.90;;;;;;4203256;28;20037;-87
2023/07/07 01:13:43;;;;;;;5.43;2.38;;;13.70;99.90;;;;;;4203179;28;20642;-87
2023/07/07 01:16:07;;;;;;;3.50;1.95;;;13.70;99.90;;;;;;4202593;28;20049;-87
2023/07/07 01:18:24;;;;;;;6.32;2.63;;;13.60;99.90;;;;;;4226698;28;20131;-87
2023/07/07 01:20:32;;;;;;;4.63;2.15;;;13.60;99.90;;;;;;4212439;28;20506;-87
2023/07/07 01:22:53;;;;;;;6.03;2.20;;;13.50;99.90;;;;;;4218963;28;20062;-87
2023/07/07 01:25:17;;;;;;;4.38;2.03;;;13.50;99.90;;;;;;4203878;28;20052;-86
2023/07/07 01:27:32;;;;;;;5.82;3.05;;;13.50;99.90;;;;;;4204256;28;20036;-87
2023/07/07 01:30:02;;;;;;;7.40;3.05;;;13.40;99.90;;;;;;4222491;28;20434;-87
2023/07/07 01:32:26;;;;;;;5.40;2.42;;;13.40;99.90;;;;;;4212610;28;20044;-87
2023/07/07 01:34:27;;;;;;;5.30;2.75;;;13.40;99.90;;;;;;4199263;28;20058;-87
2023/07/07 01:36:28;;;;;;;4.60;3.08;;;13.40;99.90;;;;;;4202149;28;20062;-87
2023/07/07 01:38:42;;;;;;;6.28;3.17;;;13.40;99.90;;;;;;4198771;28;20044;-87
2023/07/07 01:40:55;;;;;;;7.22;2.67;;;13.30;99.90;;;;;;4211604;28;20397;-87
2023/07/07 01:43:01;;;;;;;4.85;2.55;;;13.40;99.90;;;;;;4217713;27;20052;-87
2023/07/07 01:45:12;;;;;;;4.55;2.70;;;13.30;99.90;;;;;;4221656;28;20066;-87
2023/07/07 01:47:27;;;;;;;7.57;3.30;;;13.30;99.90;;;;;;4226881;28;20040;-87
2023/07/07 01:50:01;;;;;;;6.75;3.38;;;13.30;99.90;;;;;;4217730;28;20051;-87
2023/07/07 01:52:18;;;;;;;7.45;3.13;;;13.30;99.90;;;;;;4202124;28;20049;-87
2023/07/07 01:54:21;;;;;;;7.38;3.53;;;13.30;99.90;;;;;;4213361;28;20044;-87
2023/07/07 01:56:26;;;;;;;6.63;3.30;;;13.30;99.90;;;;;;4209748;28;20186;-86
2023/07/07 01:58:31;;;;;;;7.90;2.95;;;13.30;99.90;;;;;;4201234;28;20060;-87
2023/07/07 02:00:33;;;;;;;5.43;3.33;;;13.30;99.90;;;;;;4185825;28;20163;-86
2023/07/07 02:02:34;;;;;;;7.47;3.58;;;13.20;99.90;;;;;;4204197;28;20050;-87
2023/07/07 02:04:34;;;;;;;8.25;3.50;;;13.30;99.90;;;;;;4208271;28;20130;-87
2023/07/07 02:06:35;;;;;;;6.38;3.30;;;13.20;99.90;;;;;;4202648;28;20040;-87
2023/07/07 02:08:36;;;;;;;5.07;2.90;;;13.30;99.90;;;;;;4200747;28;20459;-87
2023/07/07 02:10:37;;;;;;;5.93;3.00;;;13.20;99.90;;;;;;4203492;28;20044;-86
2023/07/07 02:12:38;;;;;;;8.90;3.55;;;13.20;99.90;;;;;;4202125;28;20048;-87
2023/07/07 02:14:39;;;;;;;7.70;3.30;;;13.20;99.90;;;;;;4219650;28;20040;-86
2023/07/07 02:16:40;;;;;;;5.85;3.35;;;13.00;99.90;;;;;;4200891;28;20083;-86
2023/07/07 02:18:41;;;;;;;7.22;2.90;;;13.10;99.90;;;;;;4201103;28;20071;-86
2023/07/07 02:20:43;;;;;;;5.53;3.45;;;13.10;99.90;;;;;;4217313;28;20114;-87
2023/07/07 02:22:43;;;;;;;5.68;2.90;;;13.10;99.90;;;;;;4201183;28;20085;-87
2023/07/07 02:24:44;;;;;;;6.57;3.55;;;13.10;99.90;;;;;;4199481;28;20131;-87
2023/07/07 02:26:45;;;;;;;5.85;3.22;;;13.10;99.90;;;;;;4201311;28;20053;-87
2023/07/07 02:28:49;;;;;;;6.22;3.30;;;13.10;99.90;;;;;;4225514;28;20541;-87
2023/07/07 02:30:54;;;;;;;6.03;2.95;;;13.10;99.90;;;;;;4209985;28;20114;-87
2023/07/07 02:32:55;;;;;;;7.30;3.20;;;13.00;99.90;;;;;;4209875;28;20063;-87
2023/07/07 02:34:58;;;;;;;5.75;3.22;;;13.00;99.90;;;;;;4202855;28;20562;-87
2023/07/07 02:36:59;;;;;;;6.95;3.17;;;13.10;99.90;;;;;;4209844;28;20438;-87
2023/07/07 02:38:59;;;;;;;5.65;3.70;;;13.10;99.90;;;;;;4217625;28;20076;-87
2023/07/07 02:41:01;;;;;;;8.13;3.72;;;13.00;99.90;;;;;;4203389;28;20110;-87
2023/07/07 02:43:02;;;;;;;7.53;4.10;;;13.00;99.90;;;;;;4201004;28;20501;-87
2023/07/07 02:45:03;;;;;;;13.45;3.88;;;13.00;99.90;;;;;;4217596;28;20140;-87
2023/07/07 02:47:04;;;;;;;7.75;3.92;;;13.00;99.90;;;;;;4209930;28;20092;-87
2023/07/07 02:49:05;;;;;;;7.20;3.65;;;13.00;99.90;;;;;;4211284;28;20118;-86
2023/07/07 02:51:06;;;;;;;8.35;4.57;;;13.00;99.90;;;;;;4200108;28;20052;-87
2023/07/07 02:53:07;;;;;;;8.40;4.40;;;13.00;99.90;;;;;;4217316;28;20560;-87
2023/07/07 02:55:08;;;;;;;8.05;3.88;;;13.10;99.90;;;;;;4200164;28;20045;-87
2023/07/07 02:57:09;;;;;;;11.07;4.93;;;13.10;99.90;;;;;;4201289;28;20110;-87
2023/07/07 02:59:10;;;;;;;9.55;4.10;;;13.10;99.90;;;;;;4216851;28;20043;-86
2023/07/07 03:01:14;;;;;;;7.35;4.15;;;13.10;99.90;;;;;;4201514;28;20082;-87
2023/07/07 03:03:17;;;;;;;7.85;4.53;;;13.10;99.90;;;;;;4185338;28;20041;-87
2023/07/07 03:05:19;;;;;;;11.20;4.78;;;13.10;99.90;;;;;;4213710;28;20072;-87
2023/07/07 03:07:19;;;;;;;11.68;5.13;;;13.10;99.90;;;;;;4216444;28;20055;-86
2023/07/07 03:09:23;;;;;;;11.57;5.20;;;13.10;99.90;;;;;;4207969;28;20516;-86
2023/07/07 03:11:23;;;;;;;7.68;4.72;;;13.10;99.90;;;;;;4200414;28;20032;-87
2023/07/07 03:13:25;;;;;;;9.48;4.75;;;13.10;99.90;;;;;;4215919;28;20051;-86
2023/07/07 03:15:38;;;;;;;9.02;4.95;;;13.10;99.90;;;;;;4207550;28;20550;-87
2023/07/07 03:17:40;;;;;;;8.25;4.85;;;13.20;99.90;;;;;;4215390;28;20047;-87
2023/07/07 03:19:42;;;;;;;10.82;5.65;;;13.10;99.90;;;;;;4200006;28;20040;-87
2023/07/07 03:21:43;;;;;;;8.93;5.55;;;13.10;99.90;;;;;;4216505;28;20083;-87
2023/07/07 03:23:44;;;;;;;8.75;5.57;;;13.10;99.90;;;;;;4199757;28;20052;-87
2023/07/07 03:25:45;;;;;;;11.93;6.13;;;13.10;99.90;;;;;;4217696;28;20050;-87
2023/07/07 03:27:46;;;;;;;9.88;6.07;;;13.10;99.90;;;;;;4199588;28;20041;-87
2023/07/07 03:29:49;;;;;;;9.15;5.43;;;13.10;99.90;;;;;;4201196;28;20048;-87
2023/07/07 03:31:50;;;;;;;11.70;5.85;;;13.10;99.90;;;;;;4210928;28;20072;-87
2023/07/07 03:33:53;;;;;;;12.15;6.03;;;13.20;99.90;;;;;;4213870;28;20117;-87
2023/07/07 03:35:54;;;;;;;10.32;6.18;;;13.20;99.90;;;;;;4210887;28;20043;-87
2023/07/07 03:37:56;;;;;;;14.30;6.13;;;13.20;99.90;;;;;;4199933;28;20037;-87
2023/07/07 03:39:57;;;;;;;12.18;6.50;;;13.20;99.90;;;;;;4215434;28;20071;-87
2023/07/07 03:41:57;;;;;;;12.82;6.80;;;13.20;99.90;;;;;;4199963;28;20405;-87
2023/07/07 03:43:58;;;;;;;11.88;6.43;;;13.30;99.90;;;;;;4200446;28;20388;-86
2023/07/07 03:46:03;;;;;;;13.88;6.80;;;13.30;99.90;;;;;;4201195;28;20087;-86
2023/07/07 03:48:05;;;;;;;19.20;8.02;;;13.30;99.90;;;;;;4201001;28;20724;-86
2023/07/07 03:50:07;;;;;;;11.30;6.55;;;13.30;99.90;;;;;;4217319;28;20476;-86
2023/07/07 03:52:08;;;;;;;16.55;7.50;;;13.30;99.90;;;;;;4217560;28;20051;-86
2023/07/07 03:54:09;;;;;;;12.57;6.95;;;13.40;99.90;;;;;;4202147;28;20097;-86
2023/07/07 03:56:11;;;;;;;12.50;6.10;;;13.40;99.90;;;;;;4212840;28;20059;-86
2023/07/07 03:58:11;;;;;;;30.85;8.38;;;13.40;99.90;;;;;;4199208;28;20049;-86
2023/07/07 04:00:13;;;;;;;13.05;6.82;;;13.40;99.90;;;;;;4192796;28;20385;-86
2023/07/07 04:02:13;;;;;;;17.00;6.50;;;13.40;99.90;;;;;;4213022;28;20094;-86
2023/07/07 04:04:14;;;;;;;14.27;6.93;;;13.50;99.90;;;;;;4184567;28;20048;-86
2023/07/07 04:06:17;;;;;;;16.85;7.10;;;13.50;99.90;;;;;;4201028;28;20046;-86
2023/07/07 04:08:22;;;;;;;12.93;6.70;;;13.50;99.90;;;;;;4197454;28;20107;-86
2023/07/07 04:10:23;;;;;;;12.13;7.13;;;13.60;99.90;;;;;;4200404;28;20040;-86
2023/07/07 04:12:24;;;;;;;15.75;7.25;;;13.60;99.90;;;;;;4200275;28;20496;-86
2023/07/07 04:14:28;;;;;;;14.90;7.03;;;13.60;99.90;;;;;;4216039;28;20032;-86
2023/07/07 04:16:30;;;;;;;12.98;6.30;;;13.70;99.90;;;;;;4200446;28;20050;-86
2023/07/07 04:18:32;;;;;;;11.18;6.47;;;13.70;99.90;;;;;;4211660;28;20036;-86
2023/07/07 04:20:33;;;;;;;18.10;7.13;;;13.80;99.90;;;;;;4202358;28;20586;-86
2023/07/07 04:22:34;;;;;;;10.68;6.50;;;13.80;99.90;;;;;;4216542;28;20055;-86
2023/07/07 04:24:34;;;;;;;9.85;6.63;;;13.80;99.90;;;;;;4199701;28;20041;-87
2023/07/07 04:26:38;;;;;;;20.13;7.93;;;13.90;99.90;;;;;;4201180;28;20080;-86
2023/07/07 04:28:40;;;;;;;11.88;7.22;;;13.90;99.90;;;;;;4216729;28;20110;-87
2023/07/07 04:30:41;;;;;;;13.93;7.20;;;13.90;99.90;;;;;;4184760;28;20101;-86
2023/07/07 04:32:42;;;;;;;16.48;7.88;;;13.90;99.90;;;;;;4204770;28;20036;-86
2023/07/07 04:34:43;;;;;;;13.70;6.97;;;14.00;99.90;;;;;;4203940;28;20060;-87
2023/07/07 04:36:44;;;;;;;16.20;7.90;;;14.00;99.90;;;;;;4220768;27;20126;-87
2023/07/07 04:38:45;;;;;;;12.00;7.82;;;14.00;99.90;;;;;;4185735;28;20493;-86
2023/07/07 04:40:47;;;;;;;14.98;7.28;;;14.10;99.90;;;;;;4216447;28;20101;-86
2023/07/07 04:42:48;;;;;;;15.05;7.95;;;14.20;99.90;;;;;;4192282;28;20045;-87
2023/07/07 04:44:49;;;;;;;15.32;7.95;;;14.20;99.90;;;;;;4205531;28;20031;-87
2023/07/07 04:46:50;;;;;;;15.25;7.28;;;14.20;99.90;;;;;;4203073;28;20124;-86
2023/07/07 04:48:51;;;;;;;13.07;7.38;;;14.40;99.90;;;;;;4216163;28;20040;-87
2023/07/07 04:51:06;;;;;;;14.90;7.40;;;14.30;99.90;;;;;;4221252;27;20127;-86
2023/07/07 04:53:07;;;;;;;12.30;7.30;;;14.40;99.90;;;;;;4213347;28;20037;-86
2023/07/07 04:55:08;;;;;;;14.85;8.07;;;14.50;99.90;;;;;;4203665;28;20155;-86
2023/07/07 04:57:09;;;;;;;15.43;7.45;;;14.50;99.90;;;;;;4203892;28;20060;-86
2023/07/07 04:59:11;;;;;;;13.32;7.60;;;14.60;99.90;;;;;;4206419;28;20075;-86
2023/07/07 05:01:16;;;;;;;14.93;7.43;;;14.60;99.90;;;;;;4205172;28;20519;-86
2023/07/07 05:03:17;;;;;;;19.90;6.70;;;14.70;99.90;;;;;;4228393;27;20450;-86
2023/07/07 05:05:18;;;;;;;10.27;7.03;;;14.70;99.90;;;;;;4211955;28;20101;-87
2023/07/07 05:07:20;;;;;;;17.33;7.88;;;15.20;99.90;;;;;;4212073;28;20042;-86
2023/07/07 05:09:21;;;;;;;12.50;7.30;;;14.80;99.90;;;;;;4205290;28;20162;-87
2023/07/07 05:11:25;;;;;;;17.40;7.60;;;14.90;99.90;;;;;;4204690;28;20051;-86
2023/07/07 05:13:30;;;;;;;16.02;6.88;;;15.00;99.90;;;;;;4211080;28;20477;-85
2023/07/07 05:15:30;;;;;;;14.77;7.40;;;15.10;99.90;;;;;;4222725;28;20035;-85
2023/07/07 05:17:32;;;;;;;16.52;8.55;;;15.00;99.90;;;;;;4211585;28;20043;-86
2023/07/07 05:19:33;;;;;;;13.43;7.18;;;15.20;99.90;;;;;;4212567;28;20052;-86
2023/07/07 05:21:34;;;;;;;17.58;7.85;;;15.30;99.90;;;;;;4207250;28;20373;-86
2023/07/07 05:23:35;;;;;;;11.68;7.05;;;15.40;99.90;;;;;;4216094;28;20040;-86
2023/07/07 05:25:37;;;;;;;15.70;7.07;;;15.40;99.90;;;;;;4215908;28;20072;-85
2023/07/07 05:27:38;;;;;;;11.25;6.05;;;15.50;99.90;;;;;;4197101;28;20090;-86
2023/07/07 05:29:39;;;;;;;13.82;6.72;;;15.60;99.90;;;;;;4191871;28;20158;-86
2023/07/07 05:31:40;;;;;;;14.10;6.47;;;15.70;99.90;;;;;;4202447;28;20055;-86
2023/07/07 05:33:41;;;;;;;13.50;7.30;;;15.70;99.90;;;;;;4185337;28;20445;-86
2023/07/07 05:35:56;;;;;;;12.23;6.80;;;15.80;99.90;;;;;;4202381;28;20115;-86
2023/07/07 05:37:57;;;;;;;10.75;6.78;;;16.40;99.90;;;;;;4203985;28;20044;-86
2023/07/07 05:39:58;;;;;;;13.13;6.65;;;16.00;99.90;;;;;;4201991;28;20526;-86
2023/07/07 05:42:00;;;;;;;10.32;6.07;;;16.00;99.90;;;;;;4204024;28;20119;-87
2023/07/07 05:44:03;;;;;;;16.33;7.22;;;16.10;99.90;;;;;;4205035;28;20396;-87
2023/07/07 05:46:13;;;;;;;13.50;7.10;;;16.20;99.90;;;;;;4204425;28;20044;-86
2023/07/07 05:48:14;;;;;;;12.20;6.22;;;16.20;99.90;;;;;;4204076;28;20105;-87
2023/07/07 05:50:16;;;;;;;14.90;7.22;;;16.30;99.90;;;;;;4203026;28;20037;-86
2023/07/07 05:52:16;;;;;;;13.18;7.65;;;16.40;99.90;;;;;;4204555;28;20071;-86
2023/07/07 05:54:17;;;;;;;15.15;6.65;;;15.70;99.90;;;;;;4203201;28;20029;-86
2023/07/07 05:56:20;;;;;;;12.20;5.70;;;16.50;99.90;;;;;;4209539;28;20109;-86
2023/07/07 05:58:21;;;;;;;12.18;6.20;;;16.60;99.90;;;;;;4221700;28;20496;-86
2023/07/07 06:00:23;;;;;;;11.27;6.68;;;16.60;99.90;;;;;;4203519;28;20120;-86
2023/07/07 06:02:23;;;;;;;11.48;6.32;;;16.80;99.90;;;;;;4218462;28;20050;-86
2023/07/07 06:04:25;;;;;;;10.85;6.30;;;16.90;99.90;;;;;;4208171;28;20400;-86
2023/07/07 06:06:26;;;;;;;11.80;5.95;;;16.90;99.90;;;;;;4221844;28;20048;-86
2023/07/07 06:08:27;;;;;;;13.13;6.05;;;17.00;99.90;;;;;;4184749;28;20041;-86
2023/07/07 06:10:27;;;;;;;19.17;6.88;;;17.10;99.90;;;;;;4208461;28;20039;-86
2023/07/07 06:12:28;;;;;;;9.88;5.97;;;17.10;99.90;;;;;;4211215;28;20040;-86
2023/07/07 06:14:29;;;;;;;11.68;6.35;;;17.20;99.90;;;;;;4205002;28;20080;-85
2023/07/07 06:16:32;;;;;;;15.80;7.05;;;17.30;99.90;;;;;;4201679;28;20052;-86
2023/07/07 06:18:34;;;;;;;14.45;6.00;;;17.40;99.90;;;;;;4202992;28;20131;-86
2023/07/07 06:20:35;;;;;;;12.88;6.07;;;17.40;99.90;;;;;;4199817;28;20044;-86
2023/07/07 06:22:35;;;;;;;13.32;6.55;;;16.80;99.90;;;;;;4217479;28;20147;-86
2023/07/07 06:24:36;;;;;;;9.73;5.55;;;17.60;99.90;;;;;;4201134;28;20481;-86
2023/07/07 06:26:37;;;;;;;10.85;5.90;;;17.60;99.90;;;;;;4196122;28;20083;-86
2023/07/07 06:28:38;;;;;;;13.35;5.20;;;17.70;99.90;;;;;;4203058;28;20498;-87
2023/07/07 06:30:39;;;;;;;11.05;5.82;;;17.80;99.90;;;;;;4203154;28;20052;-87
2023/07/07 06:32:40;;;;;;;8.35;5.45;;;17.90;99.90;;;;;;4202344;28;20123;-87
2023/07/07 06:34:41;;;;;;;11.93;5.53;;;17.90;99.90;;;;;;4191863;28;20067;-88
2023/07/07 06:36:42;;;;;;;12.88;4.82;;;18.00;99.90;;;;;;4210740;28;20078;-88
2023/07/07 06:38:43;;;;;;;10.13;5.00;;;18.10;99.90;;;;;;4225651;28;20086;-88
2023/07/07 06:40:46;;;;;;;13.60;5.43;;;18.20;99.90;;;;;;4205756;28;20074;-87
2023/07/07 06:42:50;;;;;;;12.30;4.70;;;18.30;99.90;;;;;;4211073;28;20526;-88
2023/07/07 06:44:50;;;;;;;7.72;4.20;;;18.40;99.90;;;;;;4198066;28;20052;-88
2023/07/07 06:46:51;;;;;;;10.10;4.68;;;18.40;99.90;;;;;;4219156;28;20073;-88
2023/07/07 06:48:52;;;;;;;12.25;5.35;;;18.50;99.90;;;;;;4195305;28;20052;-88
2023/07/07 06:50:53;;;;;;;10.35;4.50;;;18.60;99.90;;;;;;4196358;28;20051;-88
2023/07/07 06:52:57;;;;;;;8.88;5.03;;;18.70;99.90;;;;;;4212212;28;20423;-87
2023/07/07 06:54:58;;;;;;;16.50;5.68;;;18.80;99.90;;;;;;4209699;28;20044;-87
2023/07/07 06:56:59;;;;;;;10.02;4.32;;;18.80;99.90;;;;;;4222468;28;20064;-87
2023/07/07 06:59:07;;;;;;;12.38;4.90;;;18.90;99.90;;;;;;4207267;28;20047;-88
2023/07/07 07:01:11;;;;;;;10.43;5.83;;;19.00;99.90;;;;;;4220501;28;20181;-88
2023/07/07 07:03:12;;;;;;;10.75;4.90;;;19.00;99.90;;;;;;4230101;28;20051;-88
2023/07/07 07:05:13;;;;;;;12.35;4.68;;;19.10;99.90;;;;;;4209613;28;20109;-87
2023/07/07 07:07:14;;;;;;;9.70;4.15;;;19.20;99.90;;;;;;4208999;28;20055;-88
2023/07/07 07:09:15;;;;;;;9.35;3.63;;;19.40;99.90;;;;;;4213089;28;20044;-88
2023/07/07 07:11:16;;;;;;;7.85;3.80;;;19.50;99.90;;;;;;4203986;28;20040;-88
2023/07/07 07:13:17;;;;;;;5.78;3.28;;;19.50;99.90;;;;;;4203939;28;20051;-87
2023/07/07 07:15:18;;;;;;;7.38;3.67;;;19.70;99.90;;;;;;4202073;28;20040;-88
2023/07/07 07:17:19;;;;;;;6.45;3.85;;;19.70;99.90;;;;;;4201900;28;20043;-87
2023/07/07 07:19:19;;;;;;;10.30;4.72;;;19.80;99.90;;;;;;4202653;28;20037;-89
2023/07/07 07:21:22;;;;;;;7.13;3.65;;;19.60;99.90;;;;;;4209368;28;20087;-88
2023/07/07 07:23:23;;;;;;;6.47;3.33;;;20.00;99.90;;;;;;4220678;28;20109;-90
2023/07/07 07:25:23;;;;;;;7.35;3.33;;;20.00;99.90;;;;;;4216012;28;20044;-90
2023/07/07 07:27:24;;;;;;;7.30;2.75;;;20.20;99.90;;;;;;4218458;28;20063;-90
2023/07/07 07:29:25;;;;;;;8.80;3.00;;;20.30;99.90;;;;;;4193348;28;20098;-90
2023/07/07 07:31:32;;;;;;;8.82;3.13;;;20.40;99.90;;;;;;4211433;28;20044;-90
2023/07/07 07:33:33;;;;;;;6.22;2.80;;;20.50;99.90;;;;;;4213747;28;20056;-90
2023/07/07 07:35:34;;;;;;;11.98;3.40;;;20.50;99.90;;;;;;4208591;28;20045;-90
2023/07/07 07:37:37;;;;;;;5.93;2.53;;;20.60;99.90;;;;;;4209987;28;20055;-89
2023/07/07 07:39:39;;;;;;;8.18;3.00;;;20.70;99.90;;;;;;4213903;28;20051;-89
2023/07/07 07:41:40;;;;;;;7.72;2.67;;;20.80;99.90;;;;;;4198170;28;20535;-90
2023/07/07 07:43:40;;;;;;;6.18;2.90;;;20.90;99.90;;;;;;4211352;28;20071;-90
2023/07/07 07:45:45;;;;;;;4.90;2.20;;;21.00;99.90;;;;;;4204701;28;20048;-90
2023/07/07 07:47:46;;;;;;;6.68;2.28;;;21.10;99.90;;;;;;4203084;28;20041;-91
2023/07/07 07:49:48;;;;;;;7.32;2.90;;;21.10;99.90;;;;;;4195996;28;20111;-90
2023/07/07 07:51:49;;;;;;;11.73;3.20;;;21.20;99.90;;;;;;4224137;28;20118;-91
2023/07/07 07:53:50;;;;;;;7.45;2.53;;;21.20;99.90;;;;;;4217216;28;20043;-89
2023/07/07 07:55:50;;;;;;;7.10;2.20;;;21.40;99.90;;;;;;4210567;28;20054;-91
2023/07/07 07:57:53;;;;;;;2.97;1.83;;;21.50;99.90;;;;;;4230370;28;20506;-94
2023/07/07 07:59:59;;;;;;;4.55;1.88;;;21.60;99.90;;;;;;4230546;28;20058;-91
2023/07/07 08:02:00;;;;;;;7.70;2.00;;;21.60;99.90;;;;;;4226176;28;20040;-90
2023/07/07 08:04:03;;;;;;;4.85;1.95;;;21.70;99.90;;;;;;4211981;28;20423;-89
2023/07/07 08:06:05;;;;;;;4.32;1.95;;;21.80;99.90;;;;;;4216456;28;20396;-89
2023/07/07 08:08:08;;;;;;;6.65;2.10;;;21.90;99.90;;;;;;4235404;28;20043;-90
2023/07/07 08:10:09;;;;;;;4.25;1.65;;;22.00;99.90;;;;;;4219220;28;20099;-89
2023/07/07 08:12:10;;;;;;;4.68;1.70;;;22.10;99.90;;;;;;4202370;28;20048;-87
2023/07/07 08:14:12;;;;;;;4.35;1.73;;;22.30;99.90;;;;;;4218587;28;20514;-88
2023/07/07 08:16:13;;;;;;;3.50;1.60;;;22.40;99.90;;;;;;4234486;28;20059;-87
2023/07/07 08:18:15;;;;;;;6.47;1.83;;;22.50;99.90;;;;;;4217142;28;20052;-87
2023/07/07 08:20:19;;;;;;;9.02;2.63;;;22.60;99.90;;;;;;4218715;28;20042;-87
2023/07/07 08:22:23;;;;;;;3.60;1.70;;;22.70;99.90;;;;;;4224305;28;20511;-88
2023/07/07 08:24:25;;;;;;;9.48;1.95;;;22.80;99.90;;;;;;4218256;28;20089;-88
2023/07/07 08:26:26;;;;;;;4.85;1.42;;;22.80;99.90;;;;;;4235753;28;20075;-84
2023/07/07 08:28:27;;;;;;;9.15;1.90;;;22.80;99.90;;;;;;4233919;28;20055;-83
2023/07/07 08:30:28;;;;;;;4.95;1.40;;;22.60;99.90;;;;;;4234423;28;20051;-83
2023/07/07 08:32:28;;;;;;;4.90;1.60;;;23.00;99.90;;;;;;4235592;28;20464;-85
2023/07/07 08:34:29;;;;;;;5.72;1.90;;;23.10;99.90;;;;;;4235262;28;20070;-84
2023/07/07 08:36:30;;;;;;;5.57;1.75;;;23.20;99.90;;;;;;4232391;28;20047;-84
2023/07/07 08:38:31;;;;;;;3.83;1.75;;;23.40;99.90;;;;;;4200401;28;20044;-84
2023/07/07 08:40:54;;;;;;;2.65;1.35;;;23.50;99.30;;;;;;4199483;28;20501;-84
2023/07/07 08:42:54;;;;;;;7.63;1.42;;;23.50;97.40;;;;;;4216663;28;20492;-83
2023/07/07 08:44:57;;;;;;;3.72;1.15;;;23.50;98.40;;;;;;4216766;28;20052;-84
2023/07/07 08:47:07;;;;;;;4.60;1.85;;;23.60;98.50;;;;;;4200844;28;20092;-84
2023/07/07 08:49:29;;;;;;;2.70;1.73;;;23.70;97.90;;;;;;4200328;28;20051;-84
2023/07/07 08:51:39;;;;;;;4.20;1.50;;;23.70;96.00;;;;;;4201161;28;20048;-85
2023/07/07 08:53:52;;;;;;;6.32;1.63;;;23.80;96.60;;;;;;4199922;28;20044;-84
2023/07/07 08:56:14;;;;;;;4.03;1.60;;;23.90;95.90;;;;;;4210689;28;20105;-85
2023/07/07 08:58:26;;;;;;;2.20;1.20;;;24.10;94.50;;;;;;4225507;28;20048;-84
2023/07/07 09:01:02;;;;;;;3.38;1.23;;;24.20;94.30;;;;;;4200148;28;20052;-86
2023/07/07 09:03:19;;;;;;;2.83;1.50;;;24.30;93.80;;;;;;4218386;28;20044;-85
2023/07/07 09:05:35;;;;;;;4.38;1.90;;;24.30;93.00;;;;;;4218445;28;20130;-84
2023/07/07 09:07:52;;;;;;;4.38;1.58;;;24.30;91.70;;;;;;4217803;28;20040;-85
2023/07/07 09:10:07;;;;;;;2.85;1.90;;;24.40;93.00;;;;;;4235244;28;20178;-85
2023/07/07 09:12:37;;;;;;;2.15;1.40;;;24.60;90.40;;;;;;4218211;28;20072;-86
2023/07/07 09:14:39;;;;;;;5.00;1.98;;;24.60;92.20;;;;;;4234127;28;20137;-85
2023/07/07 09:16:41;;;;;;;2.85;1.20;;;24.90;93.20;;;;;;4218334;28;20052;-85
2023/07/07 09:19:10;;;;;;;3.40;1.42;;;24.90;92.00;;;;;;4233641;28;20047;-85
2023/07/07 09:21:25;;;;;;;2.30;1.20;;;25.00;91.40;;;;;;4217811;28;20052;-85
2023/07/07 09:23:39;;;;;;;2.78;1.20;;;25.30;90.00;;;;;;4200147;28;20051;-84
2023/07/07 09:25:49;;;;;;;5.93;1.85;;;25.40;90.90;;;;;;4218454;28;20048;-86
2023/07/07 09:27:58;;;;;;;3.10;1.40;;;25.60;90.90;;;;;;4212422;28;20084;-85
2023/07/07 09:30:07;;;;;;;4.40;1.77;;;25.50;86.20;;;;;;4193260;28;20048;-84
2023/07/07 09:32:12;;;;;;;5.88;1.80;;;25.40;88.50;;;;;;4239299;28;20055;-85
2023/07/07 09:34:14;;;;;;;4.82;1.42;;;25.40;88.80;;;;;;4204915;28;20059;-85
2023/07/07 09:36:22;;;;;;;2.53;1.27;;;25.50;89.80;;;;;;4220905;28;20123;-85
2023/07/07 09:38:23;;;;;;;6.03;1.60;;;25.70;90.00;;;;;;4200646;28;20064;-85
2023/07/07 09:40:45;;;;;;;2.97;1.30;;;25.80;89.10;;;;;;4214106;28;20088;-86
2023/07/07 09:43:04;;;;;;;2.25;1.20;;;26.20;88.50;;;;;;4224318;28;20047;-86
2023/07/07 09:45:29;;;;;;;3.85;1.50;;;26.10;88.50;;;;;;4212440;28;20063;-85
2023/07/07 09:47:56;;;;;;;3.33;1.38;;;26.00;84.30;;;;;;4210379;28;20523;-85
2023/07/07 09:50:09;;;;;;;2.65;1.33;;;25.90;86.20;;;;;;4217581;28;20052;-87
2023/07/07 09:52:19;;;;;;;8.18;1.77;;;26.20;88.70;;;;;;4218745;28;20052;-85
2023/07/07 09:54:22;;;;;;;6.53;1.95;;;26.30;86.00;;;;;;4218126;28;20128;-86
2023/07/07 09:56:29;;;;;;;4.40;1.42;;;26.30;85.10;;;;;;4232858;28;20131;-87
2023/07/07 09:58:35;;;;;;;2.50;1.30;;;26.50;85.90;;;;;;4220442;28;20484;-85
2023/07/07 10:00:38;;;;;;;3.97;1.40;;;26.80;86.00;;;;;;4216622;28;20196;-86
2023/07/07 10:02:39;;;;;;;3.05;1.45;;;27.00;84.20;;;;;;4217133;28;20101;-87
2023/07/07 10:04:44;;;;;;;3.10;1.20;;;27.20;84.40;;;;;;4199276;28;20049;-85
2023/07/07 10:06:59;;;;;;;4.60;1.70;;;27.50;84.10;;;;;;4216500;28;20051;-86
2023/07/07 10:09:03;;;;;;;6.63;1.95;;;27.80;82.20;;;;;;4215674;28;20052;-87
2023/07/07 10:11:22;;;;;;;5.20;2.20;;;27.70;82.70;;;;;;4205921;28;20048;-86
2023/07/07 10:13:23;;;;;;;5.00;2.05;;;27.80;76.80;;;;;;4232931;28;20059;-85
2023/07/07 10:15:31;;;;;;;4.97;1.42;;;27.80;82.10;;;;;;4212792;28;20040;-85
2023/07/07 10:17:48;;;;;;;4.15;1.73;;;27.80;81.30;;;;;;4199348;28;20528;-87
2023/07/07 10:19:55;;;;;;;7.25;1.80;;;28.00;81.60;;;;;;4199038;28;20519;-87
2023/07/07 10:21:56;;;;;;;3.00;1.10;;;28.40;84.00;;;;;;4199384;28;20086;-86
2023/07/07 10:23:59;;;;;;;3.33;1.30;;;28.50;80.60;;;;;;4200715;28;20041;-87
2023/07/07 10:26:00;;;;;;;4.07;1.35;;;28.40;79.30;;;;;;4199308;28;20114;-86
2023/07/07 10:28:02;;;;;;;3.72;1.70;;;28.50;79.20;;;;;;4199913;28;20037;-86
2023/07/07 10:30:05;;;;;;;4.18;1.50;;;28.30;78.30;;;;;;4198741;28;20049;-86
2023/07/07 10:32:12;;;;;;;3.33;1.60;;;28.30;77.40;;;;;;4198924;28;20485;-86
2023/07/07 10:34:21;;;;;;;3.22;1.73;;;28.10;75.30;;;;;;4198341;28;20135;-87
2023/07/07 10:36:27;;;;;;;4.55;1.58;;;28.10;74.00;;;;;;4199027;28;20040;-86
2023/07/07 10:38:28;;;;;;;2.75;1.35;;;28.10;74.00;;;;;;4202492;28;20052;-87
2023/07/07 10:40:30;;;;;;;6.65;1.33;;;28.10;74.30;;;;;;4197293;28;20044;-87
2023/07/07 10:42:32;;;;;;;4.50;1.83;;;28.10;74.20;;;;;;4200105;28;20051;-87
2023/07/07 10:44:33;;;;;;;6.97;1.60;;;28.00;73.80;;;;;;4197849;28;20150;-85